Time;durP1;ratioP1;P1;durP2;ratioP2;P2;SDS_P1;SDS_P2;PMS_P1;PMS_P2;Temp;Humidity;BMP_temperature;BMP_pressure;BME280_temperature;BME280_humidity;BME280_pressure;Samples;Min_cycle;Max_cycle;Signal;HPM_P1;HPM_P2
2021/05/29 00:02:05;;;;;;;14.87;7.73;;;;;;;7.79;86.46;102066.25;4956624;28;20031;-69
2021/05/29 00:04:30;;;;;;;;;;;;;;;7.79;86.74;102071.56;4973841;28;20031;-69
2021/05/29 00:06:55;;;;;;;;;;;;;;;7.87;86.92;102061.22;4956472;28;20271;-69
2021/05/29 00:09:21;;;;;;;22.00;8.77;;;;;;;7.85;86.59;102065.81;4956187;28;20000;-69
2021/05/29 00:11:47;;;;;;;17.27;8.37;;;;;;;7.87;86.44;102058.56;4956345;28;20045;-69
2021/05/29 00:14:13;;;;;;;19.42;8.82;;;;;;;7.91;86.82;102054.69;4956325;28;20046;-69
2021/05/29 00:16:38;;;;;;;23.33;11.25;;;;;;;7.92;87.08;102056.41;4955849;28;20097;-69
2021/05/29 00:19:04;;;;;;;14.23;8.17;;;;;;;7.92;86.46;102052.91;4973133;28;20038;-69
2021/05/29 00:21:30;;;;;;;20.95;8.52;;;;;;;7.90;86.61;102055.66;4956232;28;20472;-69
2021/05/29 00:23:56;;;;;;;16.52;8.93;;;;;;;7.96;86.96;102060.56;4973007;28;20122;-69
2021/05/29 00:26:21;;;;;;;19.63;8.38;;;;;;;8.04;86.43;102052.84;4972845;28;20043;-69
2021/05/29 00:28:47;;;;;;;19.67;9.83;;;;;;;7.86;86.84;102061.31;4956026;28;20042;-69
2021/05/29 00:31:13;;;;;;;18.73;9.27;;;;;;;7.95;87.28;102060.66;4972972;28;20035;-69
2021/05/29 00:33:38;;;;;;;19.70;8.57;;;;;;;8.02;87.44;102062.72;4955932;28;20043;-69
2021/05/29 00:36:04;;;;;;;18.47;6.73;;;;;;;8.04;87.47;102057.31;4939678;28;20105;-69
2021/05/29 00:38:30;;;;;;;16.77;7.95;;;;;;;8.04;87.01;102065.28;4972703;28;20145;-69
2021/05/29 00:40:56;;;;;;;21.17;9.57;;;;;;;8.07;86.77;102058.91;4972773;28;20049;-69
2021/05/29 00:43:21;;;;;;;17.00;9.18;;;;;;;8.10;86.63;102064.84;4955695;28;20047;-69
2021/05/29 00:45:48;;;;;;;20.03;9.13;;;;;;;8.06;86.36;102073.16;4972668;28;20031;-69
2021/05/29 00:48:13;;;;;;;21.13;8.85;;;;;;;8.00;86.71;102066.47;4955456;28;20034;-69
2021/05/29 00:50:47;;;;;;;15.33;8.63;;;;;;;8.06;86.71;102070.50;4972671;28;20179;-68
2021/05/29 00:53:16;;;;;;;21.98;10.40;;;;;;;8.01;86.19;102071.69;4955696;28;20050;-69
2021/05/29 00:55:41;;;;;;;21.38;8.82;;;;;;;8.08;86.52;102065.91;4972616;28;20034;-69
2021/05/29 00:58:07;;;;;;;23.10;8.47;;;;;;;8.18;85.81;102072.25;4972332;28;20101;-69
2021/05/29 01:00:32;;;;;;;17.97;9.33;;;;;;;8.05;85.21;102072.28;4955648;28;20380;-69
2021/05/29 01:02:58;;;;;;;21.10;9.13;;;;;;;8.05;84.35;102077.63;4972445;28;20790;-69
2021/05/29 01:05:23;;;;;;;17.85;8.63;;;;;;;8.10;84.59;102069.28;4972335;28;20037;-69
2021/05/29 01:07:51;;;;;;;14.53;7.03;;;;;;;8.11;82.76;102068.34;4939190;28;20137;-69
2021/05/29 01:10:18;;;;;;;16.08;7.25;;;;;;;8.09;83.45;102072.94;4972422;28;20039;-69
2021/05/29 01:12:44;;;;;;;11.77;5.97;;;;;;;8.10;82.92;102072.81;4955306;28;20049;-69
2021/05/29 01:15:11;;;;;;;18.40;7.88;;;;;;;8.08;83.30;102076.53;4972374;28;20031;-69
2021/05/29 01:17:37;;;;;;;22.42;9.05;;;;;;;8.12;83.63;102078.84;4955016;28;20030;-69
2021/05/29 01:20:04;;;;;;;14.60;7.70;;;;;;;8.11;83.85;102084.31;4955042;28;20480;-69
2021/05/29 01:22:46;;;;;;;19.02;7.70;;;;;;;8.19;84.54;102088.09;4972253;28;20380;-69
2021/05/29 01:25:17;;;;;;;19.13;8.63;;;;;;;8.19;84.31;102089.91;4955500;28;20039;-69
2021/05/29 01:27:43;;;;;;;12.95;8.25;;;;;;;8.19;84.30;102087.22;4955129;28;20424;-69
2021/05/29 01:30:09;;;;;;;;;;;;;;;8.27;84.35;102089.34;4972721;28;20042;-69
2021/05/29 01:32:35;;;;;;;;;;;;;;;8.22;84.56;102097.66;4972520;28;19918;-69
2021/05/29 01:35:05;;;;;;;;;;;;;;;8.24;84.51;102095.72;4955659;28;19953;-69
2021/05/29 01:37:31;;;;;;;16.15;7.03;;;;;;;8.25;84.21;102089.44;4954888;28;19922;-69
2021/05/29 01:39:57;;;;;;;14.32;7.38;;;;;;;8.15;83.68;102093.78;4939244;28;20354;-69
2021/05/29 01:42:23;;;;;;;15.38;7.40;;;;;;;8.15;83.64;102094.63;4939146;28;20085;-69
2021/05/29 01:44:49;;;;;;;13.70;7.38;;;;;;;8.19;83.15;102100.53;4955219;28;20114;-69
2021/05/29 01:47:15;;;;;;;;;;;;;;;8.21;82.38;102096.78;4955183;28;20043;-69
2021/05/29 01:49:40;;;;;;;19.17;6.88;;;;;;;8.20;82.95;102102.25;4972108;28;19925;-69
2021/05/29 01:52:05;;;;;;;16.40;7.40;;;;;;;8.25;83.47;102094.78;4971949;28;20047;-69
2021/05/29 01:54:31;;;;;;;17.13;7.50;;;;;;;8.20;82.85;102099.59;4955075;28;20043;-69
2021/05/29 01:56:57;;;;;;;21.97;7.70;;;;;;;8.20;83.05;102095.13;4954756;28;20129;-69
2021/05/29 01:59:23;;;;;;;17.20;7.38;;;;;;;8.22;83.13;102092.34;4972027;28;20042;-69
2021/05/29 02:01:48;;;;;;;12.73;6.13;;;;;;;8.26;83.08;102091.13;4971866;28;20085;-69
2021/05/29 02:04:14;;;;;;;11.90;5.40;;;;;;;8.27;81.93;102092.84;4971954;28;20042;-69
2021/05/29 02:06:39;;;;;;;24.70;8.13;;;;;;;8.28;82.47;102099.84;4954568;28;20041;-69
2021/05/29 02:09:05;;;;;;;20.80;6.63;;;;;;;8.22;81.80;102095.00;4954918;28;20038;-69
2021/05/29 02:11:31;;;;;;;16.02;7.15;;;;;;;8.25;82.50;102081.47;4954843;28;20380;-69
2021/05/29 02:13:56;;;;;;;14.67;6.67;;;;;;;8.15;82.98;102091.09;4971866;28;20035;-69
2021/05/29 02:16:22;;;;;;;13.47;8.03;;;;;;;8.17;82.63;102084.72;4973783;28;20046;-69
2021/05/29 02:18:47;;;;;;;17.20;6.33;;;;;;;8.24;81.50;102087.72;4975343;28;20133;-69
2021/05/29 02:21:15;;;;;;;23.77;8.70;;;;;;;8.23;82.42;102086.06;4975290;28;20066;-69
2021/05/29 02:23:48;;;;;;;13.95;7.85;;;;;;;8.22;82.10;102089.69;4958241;28;20030;-69
2021/05/29 02:26:16;;;;;;;13.75;7.22;;;;;;;8.22;82.31;102081.72;4974948;28;20035;-69
2021/05/29 02:28:44;;;;;;;13.23;6.60;;;;;;;8.25;82.61;102081.47;4958101;28;20527;-69
2021/05/29 02:31:11;;;;;;;12.57;6.47;;;;;;;8.24;82.32;102083.28;4958263;28;20537;-69
2021/05/29 02:33:37;;;;;;;16.00;7.38;;;;;;;8.29;82.78;102082.94;4958071;28;20034;-69
2021/05/29 02:36:04;;;;;;;17.52;8.60;;;;;;;8.15;82.74;102083.97;4941776;28;20031;-69
2021/05/29 02:38:30;;;;;;;14.63;6.80;;;;;;;8.21;82.57;102090.63;4958050;28;20038;-69
2021/05/29 02:40:56;;;;;;;12.45;6.65;;;;;;;8.23;82.87;102092.22;4958048;28;20038;-69
2021/05/29 02:43:22;;;;;;;;;;;;;;;8.22;81.94;102084.38;4958169;28;20038;-69
2021/05/29 02:45:47;;;;;;;;;;;;;;;8.26;82.57;102083.16;4975268;28;20009;-69
2021/05/29 02:48:14;;;;;;;13.83;6.60;;;;;;;8.25;82.12;102084.13;4941669;28;19972;-69
2021/05/29 02:50:41;;;;;;;13.07;6.03;;;;;;;8.26;81.90;102077.81;4974846;28;20031;-69
2021/05/29 02:53:09;;;;;;;13.57;6.88;;;;;;;8.19;81.74;102080.13;4957687;28;20484;-69
2021/05/29 02:55:34;;;;;;;17.08;6.47;;;;;;;8.15;81.98;102083.97;4957621;28;20038;-69
2021/05/29 02:58:01;;;;;;;15.45;7.45;;;;;;;8.20;81.50;102088.94;4974243;28;20041;-69
2021/05/29 03:00:31;;;;;;;14.88;7.38;;;;;;;8.28;81.54;102089.22;4974577;28;20464;-69
2021/05/29 03:02:57;;;;;;;15.75;6.88;;;;;;;8.22;81.93;102089.69;4974583;28;20045;-69
2021/05/29 03:05:24;;;;;;;15.15;6.30;;;;;;;8.13;82.04;102090.38;4974487;28;20034;-69
2021/05/29 03:07:51;;;;;;;13.90;6.15;;;;;;;8.15;81.39;102096.44;4957262;28;20243;-69
2021/05/29 03:10:21;;;;;;;16.30;6.22;;;;;;;8.14;80.53;102102.69;4957495;28;20049;-69
2021/05/29 03:12:47;;;;;;;14.48;7.03;;;;;;;8.15;80.51;102109.72;4957414;28;20420;-69
2021/05/29 03:15:16;;;;;;;15.63;7.28;;;;;;;8.15;81.20;102107.91;4957426;28;20101;-69
2021/05/29 03:17:42;;;;;;;30.13;8.68;;;;;;;8.28;80.95;102099.84;4973984;28;20035;-69
2021/05/29 03:20:11;;;;;;;10.68;5.70;;;;;;;8.23;80.24;102102.84;4957134;28;20031;-69
2021/05/29 03:22:37;;;;;;;18.35;7.55;;;;;;;8.21;80.05;102093.28;4974245;28;20030;-69
2021/05/29 03:25:03;;;;;;;11.73;5.82;;;;;;;8.22;80.21;102100.34;4956932;28;20043;-69
2021/05/29 03:27:29;;;;;;;14.60;6.47;;;;;;;8.18;80.36;102097.03;4955631;28;20027;-69
2021/05/29 03:29:54;;;;;;;14.52;7.38;;;;;;;8.22;80.46;102100.34;4974117;28;20039;-69
2021/05/29 03:32:20;;;;;;;14.57;6.17;;;;;;;8.21;80.21;102112.75;4973984;28;20053;-69
2021/05/29 03:34:45;;;;;;;16.00;7.70;;;;;;;8.20;80.51;102102.25;4957049;28;20071;-69
2021/05/29 03:37:11;;;;;;;13.50;7.00;;;;;;;8.24;81.02;102111.69;4973788;28;20368;-69
2021/05/29 03:39:37;;;;;;;14.95;6.90;;;;;;;8.31;81.06;102112.94;4956710;28;20452;-69
2021/05/29 03:42:03;;;;;;;13.85;7.95;;;;;;;8.15;80.62;102112.38;4940843;28;20038;-69
2021/05/29 03:44:29;;;;;;;;;;;;;;;8.21;81.58;102119.91;4941358;28;20413;-69
2021/05/29 03:46:54;;;;;;;;;;;;;;;8.28;81.04;102114.97;4973998;28;20023;-69
2021/05/29 03:49:19;;;;;;;15.17;6.73;;;;;;;8.24;81.15;102117.88;4973782;28;20315;-69
2021/05/29 03:51:45;;;;;;;13.90;6.43;;;;;;;8.21;81.83;102114.56;4956611;28;20054;-69
2021/05/29 03:54:10;;;;;;;17.73;8.27;;;;;;;8.15;80.45;102105.25;4956482;28;20049;-69
2021/05/29 03:56:35;;;;;;;13.93;7.77;;;;;;;8.17;81.35;102108.66;4956239;28;20038;-69
2021/05/29 03:59:03;;;;;;;18.97;7.37;;;;;;;8.16;80.62;102116.75;4973619;28;20479;-69
2021/05/29 04:01:28;;;;;;;18.80;8.27;;;;;;;8.20;80.11;102115.56;4940517;28;20423;-69
2021/05/29 04:03:54;;;;;;;17.20;6.53;;;;;;;8.17;79.91;102107.78;4956275;28;20039;-69
2021/05/29 04:06:19;;;;;;;18.37;6.57;;;;;;;8.20;80.24;102112.91;4956086;28;20133;-69
2021/05/29 04:08:44;;;;;;;15.37;8.20;;;;;;;8.10;80.60;102123.38;4956408;28;20097;-69
2021/05/29 04:11:10;;;;;;;20.27;8.00;;;;;;;8.04;80.79;102122.00;4956371;28;20042;-69
2021/05/29 04:13:35;;;;;;;18.43;7.93;;;;;;;8.08;80.76;102124.41;4973281;28;20077;-69
2021/05/29 04:16:00;;;;;;;14.23;6.23;;;;;;;8.10;81.07;102125.16;4939973;28;20038;-69
2021/05/29 04:18:26;;;;;;;16.37;8.60;;;;;;;8.15;81.56;102131.00;4973216;28;20464;-69
2021/05/29 04:20:51;;;;;;;13.53;6.70;;;;;;;8.25;81.68;102132.03;4973249;28;20066;-69
2021/05/29 04:23:17;;;;;;;12.90;7.77;;;;;;;8.26;81.89;102139.03;4956048;28;20367;-69
2021/05/29 04:25:42;;;;;;;22.98;8.50;;;;;;;8.10;81.58;102134.00;4956006;28;20065;-69
2021/05/29 04:28:07;;;;;;;19.33;8.60;;;;;;;7.99;81.51;102125.97;4972817;28;20385;-69
2021/05/29 04:30:33;;;;;;;20.33;8.40;;;;;;;8.03;81.21;102136.25;4955993;28;20034;-69
2021/05/29 04:32:58;;;;;;;21.73;9.15;;;;;;;8.10;80.89;102135.78;4972957;28;20041;-69
2021/05/29 04:35:24;;;;;;;25.67;8.90;;;;;;;8.14;81.09;102134.63;4955888;28;20046;-69
2021/05/29 04:37:51;;;;;;;13.00;8.03;;;;;;;8.19;81.72;102141.31;4972188;28;20050;-69
2021/05/29 04:40:18;;;;;;;18.38;8.15;;;;;;;8.16;82.01;102138.03;4972936;28;20046;-69
2021/05/29 04:42:44;;;;;;;18.55;7.80;;;;;;;8.16;81.64;102143.34;4972867;28;20042;-69
2021/05/29 04:45:10;;;;;;;20.88;8.10;;;;;;;8.19;82.68;102149.31;4956177;28;20109;-69
2021/05/29 04:47:36;;;;;;;23.25;8.18;;;;;;;8.16;81.41;102149.50;4972489;28;20122;-69
2021/05/29 04:50:03;;;;;;;17.87;7.00;;;;;;;8.15;81.88;102155.78;4972911;28;20101;-69
2021/05/29 04:52:29;;;;;;;18.80;9.57;;;;;;;8.09;81.56;102150.91;4972566;28;20531;-69
2021/05/29 04:54:55;;;;;;;19.23;9.17;;;;;;;8.07;81.46;102154.66;4972820;28;20114;-69
2021/05/29 04:57:20;;;;;;;16.63;9.30;;;;;;;8.15;81.85;102163.78;4955375;28;20543;-69
2021/05/29 04:59:45;;;;;;;12.67;6.63;;;;;;;8.04;82.21;102161.88;4972715;28;20085;-69
2021/05/29 05:02:10;;;;;;;15.13;7.67;;;;;;;8.07;81.72;102158.16;4972652;28;20041;-69
2021/05/29 05:04:36;;;;;;;19.07;8.80;;;;;;;8.23;81.38;102160.53;4972556;28;20189;-69
2021/05/29 05:07:02;;;;;;;26.77;9.97;;;;;;;8.19;81.78;102159.06;4955139;28;20039;-69
2021/05/29 05:09:27;;;;;;;20.05;8.60;;;;;;;8.27;82.09;102159.38;4955558;28;20483;-69
2021/05/29 05:11:53;;;;;;;19.00;8.57;;;;;;;8.31;81.17;102163.50;4955639;28;20048;-69
2021/05/29 05:14:19;;;;;;;21.58;9.50;;;;;;;8.37;81.67;102159.53;4955465;28;20130;-69
2021/05/29 05:16:44;;;;;;;25.67;9.70;;;;;;;8.40;81.90;102154.84;4972053;28;20126;-69
2021/05/29 05:19:09;;;;;;;14.77;8.47;;;;;;;8.47;81.71;102167.72;4972386;28;20278;-69
2021/05/29 05:21:35;;;;;;;20.90;8.67;;;;;;;8.47;81.20;102162.38;4955286;28;20082;-69
2021/05/29 05:24:00;;;;;;;22.37;8.70;;;;;;;8.35;80.89;102164.97;4939263;28;20042;-69
2021/05/29 05:26:26;;;;;;;15.13;8.97;;;;;;;8.45;81.02;102163.38;4939064;28;20043;-69
2021/05/29 05:28:52;;;;;;;18.02;7.20;;;;;;;8.53;81.26;102168.09;4971465;28;20098;-69
2021/05/29 05:31:18;;;;;;;12.90;7.43;;;;;;;8.60;80.39;102164.03;4937582;28;20050;-69
2021/05/29 05:33:47;;;;;;;15.05;7.35;;;;;;;8.54;79.12;102164.47;4937461;28;20719;-69
2021/05/29 05:36:13;;;;;;;16.50;6.50;;;;;;;8.58;79.39;102167.75;4970192;28;20460;-69
2021/05/29 05:38:41;;;;;;;11.93;6.38;;;;;;;8.68;79.69;102163.44;4953433;28;20031;-69
2021/05/29 05:41:07;;;;;;;13.40;6.50;;;;;;;8.72;78.75;102167.56;4939077;28;20475;-69
2021/05/29 05:43:33;;;;;;;;;;;;;;;8.86;79.01;102172.69;4972531;28;20034;-69
2021/05/29 05:45:59;;;;;;;;;;;;;;;8.79;76.99;102174.13;4955342;28;19981;-69
2021/05/29 05:48:25;;;;;;;12.23;6.20;;;;;;;8.78;77.47;102175.13;4939216;28;20012;-69
2021/05/29 05:50:57;;;;;;;11.63;5.68;;;;;;;8.87;77.87;102179.75;4956851;28;20582;-69
2021/05/29 05:53:24;;;;;;;12.95;7.72;;;;;;;8.91;77.98;102174.19;4958903;28;20138;-69
2021/05/29 05:55:54;;;;;;;12.27;7.07;;;;;;;8.89;77.72;102176.94;4975762;28;20041;-69
2021/05/29 05:58:20;;;;;;;12.02;6.95;;;;;;;8.96;77.01;102175.50;4943049;28;20043;-69
2021/05/29 06:00:45;;;;;;;13.02;6.45;;;;;;;8.99;76.92;102179.75;4958761;28;20065;-69
2021/05/29 06:03:11;;;;;;;16.30;7.07;;;;;;;9.07;77.18;102182.69;4975790;28;20354;-69
2021/05/29 06:05:37;;;;;;;15.73;7.20;;;;;;;8.85;76.34;102181.66;4975640;28;20138;-69
2021/05/29 06:08:03;;;;;;;15.80;6.15;;;;;;;8.88;78.26;102177.91;4958518;28;20046;-69
2021/05/29 06:10:28;;;;;;;12.20;6.68;;;;;;;8.81;77.33;102182.84;4975513;28;20039;-69
2021/05/29 06:12:54;;;;;;;15.27;6.57;;;;;;;8.78;77.33;102187.56;4958123;28;20045;-69
2021/05/29 06:20:43;;;;;;;16.50;6.20;;;;;;;9.11;77.21;102205.47;4975130;28;20034;-69
2021/05/29 06:23:10;;;;;;;10.07;6.50;;;;;;;9.14;76.29;102207.91;4958085;28;20561;-69
2021/05/29 06:25:35;;;;;;;10.25;5.80;;;;;;;9.00;74.70;102211.63;4975127;28;20034;-69
2021/05/29 06:28:01;;;;;;;11.80;6.33;;;;;;;9.11;76.34;102209.94;4958081;28;20357;-69
2021/05/29 06:30:26;;;;;;;13.47;5.97;;;;;;;9.34;73.58;102217.03;4958030;28;20042;-69
2021/05/29 06:32:51;;;;;;;10.97;5.07;;;;;;;9.40;74.37;102216.53;4958263;28;20129;-69
2021/05/29 06:35:17;;;;;;;13.43;5.87;;;;;;;9.34;73.82;102225.03;4958161;28;20038;-70
2021/05/29 06:37:42;;;;;;;12.17;6.30;;;;;;;9.12;75.12;102223.16;4957977;28;20584;-69
2021/05/29 06:40:08;;;;;;;11.40;5.93;;;;;;;9.01;74.87;102236.44;4958081;28;20066;-69
2021/05/29 06:42:34;;;;;;;11.70;6.43;;;;;;;9.12;75.51;102231.13;4975077;28;20046;-69
2021/05/29 06:45:00;;;;;;;13.52;6.28;;;;;;;9.12;75.13;102227.63;4941816;28;20101;-70
2021/05/29 06:47:25;;;;;;;17.02;6.95;;;;;;;9.07;74.86;102235.97;4957678;28;20043;-69
2021/05/29 06:49:51;;;;;;;14.87;6.33;;;;;;;8.73;75.50;102229.66;4957746;28;20050;-70
2021/05/29 06:52:20;;;;;;;14.10;7.00;;;;;;;8.71;75.15;102231.59;4974905;28;20042;-70
2021/05/29 06:54:56;;;;;;;11.90;6.70;;;;;;;8.73;75.25;102235.84;4957737;28;20103;-69
2021/05/29 07:00:08;;;;;;;11.13;5.70;;;;;;;8.97;75.94;102237.66;4957679;28;19918;-69
2021/05/29 07:02:34;;;;;;;12.32;6.35;;;;;;;8.82;75.45;102243.13;4974480;28;20035;-69
2021/05/29 07:05:00;;;;;;;17.38;6.75;;;;;;;9.11;74.41;102241.91;4957763;28;20135;-69
2021/05/29 07:07:26;;;;;;;14.45;6.35;;;;;;;9.11;74.04;102247.22;4957367;28;20050;-70
2021/05/29 07:09:52;;;;;;;10.32;5.00;;;;;;;9.14;74.28;102253.19;4974498;28;20046;-69
2021/05/29 07:12:17;;;;;;;14.07;6.23;;;;;;;8.94;74.56;102246.69;4957481;28;20038;-69
2021/05/29 07:14:43;;;;;;;14.50;6.63;;;;;;;9.02;74.86;102251.47;4957448;28;20483;-69
2021/05/29 07:17:08;;;;;;;18.05;7.00;;;;;;;8.91;74.88;102241.59;4941157;28;20125;-70
2021/05/29 07:19:34;;;;;;;12.83;5.97;;;;;;;8.98;74.37;102253.50;4957454;28;20053;-69
2021/05/29 07:22:00;;;;;;;7.80;5.28;;;;;;;8.94;74.67;102261.84;4974405;28;20030;-69
2021/05/29 07:24:26;;;;;;;4.80;3.97;;;;;;;9.18;74.28;102254.66;4957257;28;20105;-69
2021/05/29 07:26:53;;;;;;;12.23;5.85;;;;;;;9.23;73.42;102252.50;4956775;28;20042;-69
2021/05/29 07:29:18;;;;;;;;;;;;;;;9.36;73.81;102256.88;4957722;28;20031;-69
2021/05/29 07:31:43;;;;;;;;;;;;;;;9.42;73.32;102261.75;4974541;28;20410;-69
2021/05/29 07:34:09;;;;;;;10.67;5.87;;;;;;;9.50;74.46;102260.22;4974148;28;19924;-69
2021/05/29 07:36:35;;;;;;;12.07;5.55;;;;;;;9.60;72.03;102259.47;4956844;28;20077;-69
2021/05/29 07:39:00;;;;;;;9.30;4.67;;;;;;;9.52;72.53;102262.72;4956556;28;20035;-69
2021/05/29 07:41:26;;;;;;;15.87;5.70;;;;;;;9.75;72.55;102257.44;4955526;28;20460;-69
2021/05/29 07:43:51;;;;;;;9.23;4.90;;;;;;;9.90;69.95;102264.22;4972226;28;20023;-69
2021/05/29 07:46:18;;;;;;;12.43;6.27;;;;;;;9.93;70.66;102261.31;4972128;28;20045;-69
2021/05/29 07:48:44;;;;;;;12.00;6.15;;;;;;;9.99;71.43;102268.81;4972236;28;20057;-69
2021/05/29 07:51:10;;;;;;;13.73;4.95;;;;;;;9.97;70.92;102264.59;4955279;28;20519;-69
2021/05/29 07:53:41;;;;;;;9.35;5.13;;;;;;;10.18;70.60;102267.38;4955252;28;20130;-69
2021/05/29 07:56:10;;;;;;;11.13;5.43;;;;;;;10.15;69.09;102274.66;4940102;28;20038;-69
2021/05/29 07:58:36;;;;;;;11.73;5.15;;;;;;;10.12;71.00;102276.72;4940544;28;20427;-70
2021/05/29 08:01:03;;;;;;;16.83;5.88;;;;;;;10.20;72.20;102268.94;4956707;28;20035;-69
2021/05/29 08:03:31;;;;;;;13.80;6.10;;;;;;;10.18;70.69;102273.56;4956392;28;20368;-70
2021/05/29 08:05:56;;;;;;;12.68;6.43;;;;;;;10.26;71.69;102272.97;4956189;28;20350;-70
2021/05/29 08:08:23;;;;;;;15.97;6.03;;;;;;;10.25;70.60;102274.75;4956455;28;20137;-70
2021/05/29 08:10:50;;;;;;;13.00;6.10;;;;;;;10.29;70.80;102278.06;4973359;28;20066;-70
2021/05/29 08:13:17;;;;;;;10.93;5.18;;;;;;;10.60;70.39;102280.94;4955741;28;20070;-70
2021/05/29 08:15:42;;;;;;;;;;;;;;;10.61;70.02;102278.13;4956681;28;20037;-70
2021/05/29 08:18:08;;;;;;;;;;;;;;;10.54;68.57;102277.78;4956017;28;20260;-70
2021/05/29 08:20:35;;;;;;;12.07;5.38;;;;;;;10.39;69.89;102279.00;4954737;28;20406;-69
2021/05/29 08:23:01;;;;;;;10.75;5.13;;;;;;;10.38;71.05;102277.34;4954498;28;20384;-70
2021/05/29 08:25:26;;;;;;;15.75;5.50;;;;;;;10.27;69.98;102279.97;4954761;28;20038;-69
2021/05/29 08:27:51;;;;;;;9.93;5.03;;;;;;;10.18;69.44;102280.72;4954376;28;20043;-70
2021/05/29 08:30:17;;;;;;;8.97;5.03;;;;;;;10.05;69.76;102286.19;4954589;28;20129;-69
2021/05/29 08:32:43;;;;;;;8.13;4.97;;;;;;;10.19;70.44;102287.78;4971422;28;20117;-69
2021/05/29 08:35:09;;;;;;;10.87;5.20;;;;;;;10.34;71.01;102284.72;4955759;28;20289;-70
2021/05/29 08:37:34;;;;;;;12.15;5.53;;;;;;;10.48;69.27;102288.94;4939620;28;20050;-70
2021/05/29 08:39:59;;;;;;;9.93;5.47;;;;;;;10.77;68.40;102283.91;4955697;28;20042;-70
2021/05/29 08:42:25;;;;;;;10.20;5.47;;;;;;;10.77;67.77;102283.06;4972897;28;20030;-69
2021/05/29 08:44:51;;;;;;;9.33;5.93;;;;;;;10.76;68.37;102286.72;4956149;28;20039;-79
2021/05/29 08:47:19;;;;;;;7.43;5.63;;;;;;;10.96;68.02;102285.91;4940040;28;20046;-79
2021/05/29 08:49:44;;;;;;;11.25;5.43;;;;;;;10.76;68.09;102287.56;4939927;28;20070;-79
2021/05/29 08:52:10;;;;;;;13.57;6.10;;;;;;;10.68;66.88;102283.84;4955809;28;20139;-79
2021/05/29 08:54:36;;;;;;;11.52;5.10;;;;;;;10.80;66.44;102282.81;4956071;28;20043;-79
2021/05/29 08:57:01;;;;;;;9.87;4.93;;;;;;;11.16;66.91;102275.38;4972532;28;20043;-78
2021/05/29 08:59:27;;;;;;;10.13;5.40;;;;;;;11.62;67.18;102269.63;4940082;28;20031;-79
2021/05/29 09:01:54;;;;;;;12.80;5.93;;;;;;;11.89;65.24;102268.25;4972773;28;20292;-79
2021/05/29 09:04:20;;;;;;;10.60;4.85;;;;;;;11.44;64.52;102268.53;4955826;28;20097;-79
2021/05/29 09:06:46;;;;;;;7.73;4.53;;;;;;;11.81;62.56;102276.91;4972388;28;20034;-79
2021/05/29 09:09:15;;;;;;;8.57;4.57;;;;;;;12.09;62.11;102271.03;4955664;28;20273;-79
2021/05/29 09:12:03;;;;;;;10.63;5.80;;;;;;;12.17;61.58;102274.69;4972669;28;20035;-79
2021/05/29 09:14:32;;;;;;;9.30;5.00;;;;;;;12.69;62.63;102271.88;4955801;28;20041;-79
2021/05/29 09:17:22;;;;;;;8.55;4.13;;;;;;;14.04;58.23;102274.50;4972469;28;20045;-80
2021/05/29 09:20:02;;;;;;;8.15;4.90;;;;;;;14.21;57.43;102276.44;4972632;28;20062;-80
2021/05/29 09:22:35;;;;;;;6.72;4.18;;;;;;;14.40;59.15;102278.16;4972697;28;20054;-79
2021/05/29 09:25:08;;;;;;;11.73;5.00;;;;;;;15.83;55.26;102279.94;4941927;28;20104;-80
2021/05/29 09:27:35;;;;;;;11.70;5.25;;;;;;;15.85;52.28;102285.16;4959255;28;20039;-80
2021/05/29 09:30:06;;;;;;;10.30;4.93;;;;;;;14.90;53.98;102285.75;4959582;28;20070;-79
2021/05/29 09:32:33;;;;;;;11.57;5.93;;;;;;;14.92;56.38;102289.16;4959310;28;20186;-79
2021/05/29 09:35:03;;;;;;;9.82;5.43;;;;;;;14.61;55.92;102290.50;4959241;28;20039;-79
2021/05/29 09:37:29;;;;;;;14.57;5.43;;;;;;;14.28;57.26;102290.06;4976178;28;20516;-80
2021/05/29 09:40:00;;;;;;;11.67;5.50;;;;;;;14.71;55.57;102297.50;4976360;28;20042;-79
2021/05/29 09:42:28;;;;;;;5.88;4.40;;;;;;;15.74;53.22;102289.81;4959392;28;20045;-80
2021/05/29 09:44:55;;;;;;;14.93;5.80;;;;;;;15.29;53.64;102292.63;4976232;28;20113;-80
2021/05/29 09:47:25;;;;;;;9.25;5.68;;;;;;;15.77;51.65;102296.72;4959009;28;20109;-80
2021/05/29 09:49:52;;;;;;;9.75;4.88;;;;;;;15.43;53.25;102297.50;4959187;28;20042;-80
2021/05/29 09:52:40;;;;;;;6.90;4.70;;;;;;;16.25;50.21;102292.59;4959236;28;20045;-80
2021/05/29 09:55:08;;;;;;;6.65;3.67;;;;;;;16.03;51.77;102302.91;4976310;28;20379;-79
2021/05/29 09:57:57;;;;;;;13.60;5.45;;;;;;;15.68;52.60;102311.94;4943022;28;20544;-80
2021/05/29 10:00:38;;;;;;;8.75;4.82;;;;;;;15.41;53.54;102307.56;4976209;28;20035;-80
2021/05/29 10:03:05;;;;;;;9.35;5.13;;;;;;;15.41;53.84;102299.50;4976093;28;20453;-80
2021/05/29 10:05:33;;;;;;;9.48;4.47;;;;;;;16.20;53.07;102294.91;4959283;28;20081;-81
2021/05/29 10:07:58;;;;;;;11.35;5.88;;;;;;;15.99;50.35;102288.09;4959118;28;20038;-81
2021/05/29 10:10:25;;;;;;;10.40;5.30;;;;;;;16.73;50.71;102282.94;4976367;28;20048;-80
2021/05/29 10:12:50;;;;;;;13.35;4.55;;;;;;;16.33;51.61;102287.22;4975968;28;20097;-80
2021/05/29 10:15:17;;;;;;;8.27;5.10;;;;;;;16.48;52.30;102283.91;4958724;28;20039;-80
2021/05/29 10:17:43;;;;;;;;;;;;;;;15.02;53.34;102290.91;4942992;28;20350;-80
2021/05/29 10:20:09;;;;;;;11.30;5.57;;;;;;;15.80;53.29;102286.50;4975724;28;20344;-79
2021/05/29 10:22:35;;;;;;;9.10;5.30;;;;;;;16.81;49.97;102284.84;4975656;28;20031;-81
2021/05/29 10:25:02;;;;;;;10.90;6.30;;;;;;;16.14;51.02;102285.66;4958895;28;20077;-81
2021/05/29 10:27:30;;;;;;;7.57;5.63;;;;;;;16.41;51.75;102287.28;4975547;28;20448;-80
2021/05/29 10:29:59;;;;;;;8.63;5.00;;;;;;;17.06;51.75;102274.94;4942743;28;20041;-81
2021/05/29 10:32:26;;;;;;;11.25;5.72;;;;;;;17.24;50.68;102283.69;4975640;28;20664;-81
2021/05/29 10:34:52;;;;;;;10.27;5.47;;;;;;;16.69;50.05;102284.28;4958964;28;20519;-82
2021/05/29 10:37:27;;;;;;;9.13;5.38;;;;;;;15.90;52.96;102286.38;4974877;28;20034;-79
2021/05/29 10:39:52;;;;;;;11.10;4.60;;;;;;;16.72;52.46;102288.53;4958473;28;20104;-80
2021/05/29 10:42:31;;;;;;;7.13;4.67;;;;;;;16.72;48.80;102275.88;4975625;28;20022;-82
2021/05/29 10:45:24;;;;;;;6.78;4.65;;;;;;;16.14;52.26;102274.88;4976135;28;20089;-81
2021/05/29 10:48:12;;;;;;;7.32;4.20;;;;;;;17.40;48.92;102277.47;4975924;28;20391;-82
2021/05/29 10:50:43;;;;;;;10.95;6.00;;;;;;;17.29;48.64;102280.50;4942911;28;20053;-83
2021/05/29 10:53:09;;;;;;;8.45;4.82;;;;;;;16.96;49.95;102271.56;4959094;28;20158;-83
2021/05/29 10:55:35;;;;;;;8.05;4.30;;;;;;;16.97;49.06;102275.94;4959340;28;20090;-85
2021/05/29 10:58:05;;;;;;;5.73;4.50;;;;;;;17.63;49.24;102283.00;4976127;28;20086;-81
2021/05/29 11:00:41;;;;;;;10.55;5.70;;;;;;;17.69;48.24;102286.84;4942721;28;20030;-82
2021/05/29 11:03:26;;;;;;;8.13;5.72;;;;;;;17.88;48.83;102283.78;4975417;28;20042;-84
2021/05/29 11:05:55;;;;;;;11.73;5.68;;;;;;;19.23;47.28;102280.84;4958423;28;20523;-82
2021/05/29 11:08:46;;;;;;;9.10;5.25;;;;;;;18.09;47.50;102285.91;4958771;28;20523;-84
2021/05/29 11:11:30;;;;;;;8.07;4.93;;;;;;;17.86;49.11;102282.28;4975855;28;20444;-84
2021/05/29 11:14:06;;;;;;;9.30;5.00;;;;;;;18.20;46.54;102290.09;4975428;28;20128;-72
2021/05/29 11:16:47;;;;;;;7.70;4.13;;;;;;;18.45;45.47;102282.72;4974264;28;20069;-72
2021/05/29 11:19:22;;;;;;;8.93;5.07;;;;;;;17.46;48.51;102281.31;4974351;28;20043;-71
2021/05/29 11:22:12;;;;;;;11.65;5.07;;;;;;;18.44;49.87;102275.63;4957479;28;20379;-72
2021/05/29 11:24:48;;;;;;;8.50;5.03;;;;;;;19.27;47.32;102276.75;4974354;28;20043;-71
2021/05/29 11:27:25;;;;;;;7.70;4.75;;;;;;;19.40;43.84;102276.13;4957001;28;20057;-71
2021/05/29 11:30:00;;;;;;;8.15;4.10;;;;;;;19.42;44.57;102287.63;4974248;28;20069;-72
2021/05/29 11:35:18;;;;;;;10.70;4.97;;;;;;;18.93;44.59;102288.88;4974117;28;20460;-72
2021/05/29 11:37:56;;;;;;;9.73;4.50;;;;;;;19.79;45.50;102292.19;4956865;28;20035;-72
2021/05/29 11:40:22;;;;;;;10.00;5.10;;;;;;;19.36;44.62;102300.03;4957159;28;20129;-72
2021/05/29 11:42:49;;;;;;;6.32;4.70;;;;;;;19.57;43.58;102295.75;4973357;28;20177;-72